Observations for Trim Market St
| Time | AQI | Temp °C | Hum % | Pres Pa | CO μg/m³ | H₂S μg/m³ | NO μg/m³ | NO₂ μg/m³ | O₃ μg/m³ | SO₂ μg/m³ | PM1 μg/m³ | PM2.5 μg/m³ | PM10 μg/m³ |
|---|---|---|---|---|---|---|---|---|---|---|---|---|---|
| Monday 24 August 2026 | |||||||||||||
| 12:05 | 1 | 37.4 | 25 | 66,704 | 0 | 0 | 1.26 | 35.23 | 118.18 | 0 | 2.14 | 6.28 | 6.63 |
| 12:04 | 1 | 37.5 | 25 | 66,700 | 0 | 0 | 1.32 | 31.94 | 103.35 | 0 | 0.71 | 5.17 | 5.69 |
| 12:03 | 1 | 37.5 | 25 | 66,696 | 0 | 0 | 1.42 | 26.85 | 138.55 | 0 | 2.85 | 6.84 | 7.52 |
| 12:02 | 1 | 37.6 | 24 | 66,688 | 0 | 0 | 1.43 | 30.87 | 124.22 | 0 | 0.71 | 4.66 | 5.12 |
| 12:01 | 1 | 37.6 | 24 | 66,677 | 0 | 0 | 1.45 | 26 | 105.02 | 0 | 1.43 | 6.31 | 7.52 |
| 12:00 | 1 | 37.7 | 25 | 66,692 | 0 | 0 | 1.46 | 21.16 | 110.36 | 0 | 0.71 | 5.19 | 5.71 |
| 11:59 | 1 | 37.6 | 25 | 66,684 | 0 | 0 | 1.48 | 19.28 | 105.75 | 0 | 2.85 | 7.38 | 7.52 |
| 11:58 | 1 | 37.6 | 25 | 66,737 | 0 | 0 | 1.46 | 23.2 | 108.63 | 0.06 | 2.85 | 6.26 | 6.89 |
| 11:56 | 1 | 37.5 | 25 | 66,724 | 0 | 0 | 1.44 | 32.88 | 108.77 | 0 | 1.43 | 5.72 | 6.29 |
| 11:55 | 1 | 37.5 | 25 | 66,724 | 0 | 0 | 1.46 | 29.58 | 124.39 | 0 | 2.14 | 6.26 | 6.63 |
| 11:49 | 1 | 37.3 | 26 | 66,714 | 0 | 0 | 1.52 | 29.68 | 120.74 | 0 | 0.71 | 5.14 | 5.66 |
| 11:48 | 1 | 37.3 | 26 | 66,708 | 0 | 0 | 1.53 | 36.12 | 105.31 | 0 | 2.14 | 5.69 | 6.25 |
| 11:47 | 1 | 37.3 | 26 | 66,702 | 0 | 0 | 1.52 | 29.29 | 110.52 | 0 | 1.43 | 5.14 | 5.65 |
| 11:38 | 1 | 37.2 | 26 | 66,669 | 0 | 0 | 1.61 | 31.48 | 101.45 | 0 | 2.14 | 6.78 | 9.3 |
| 11:34 | 1 | 37.1 | 26 | 66,690 | 0 | 0 | 1.57 | 25.94 | 94.73 | 0 | 1.43 | 5.11 | 5.62 |
| 11:33 | 1 | 37.1 | 26 | 66,686 | 0 | 0 | 1.57 | 26.06 | 100.15 | 0 | 2.14 | 6.21 | 6.83 |
| 11:32 | 1 | 37.1 | 26 | 66,675 | 0 | 0 | 1.54 | 20.42 | 93.93 | 0 | 1.43 | 5.11 | 5.62 |
| 11:31 | 1 | 37.1 | 27 | 66,665 | 0 | 0 | 1.59 | 16.91 | 93.07 | 0 | 2.85 | 6.19 | 6.64 |
| 11:30 | 1 | 37.1 | 27 | 66,651 | 0 | 0 | 1.64 | 17.56 | 86.51 | 0 | 2.14 | 6.72 | 7.39 |
| 11:29 | 1 | 37 | 27 | 66,627 | 0 | 0 | 1.8 | 26.28 | 94.5 | 0 | 2.14 | 6.16 | 6.64 |